Arklow Spray — C6VK8 — position and weather

sailwx.info

Track history (hours):
 
Tides and Currents Weather Stations Pressure Air Temp Water Temp Dewpoint Dewpoint Depression Visibility Wind Speed Wind Dir Waves Ship Positions

Arklow Spray

Last reported at 2017-Jul-23 04:21 UTC. Time now 2017-Jul-26 12:34 UTC.
Position N 49°44' W 003°33'.

Length 90 m; draft 4.6 m.

MMSI: 309914000.

Date/timePositionNaut miles runAvg speedWind from/ knotsBaromVisibWave heightAir tempDewpointWater temp
2017-Jul-23 04:21N 49°44' W 003°33'5 8.4
2017-Jul-23 03:43N 49°47' W 003°26'2 9.0
2017-Jul-23 03:30N 49°48' W 003°23'5 9.4
2017-Jul-23 03:00N 49°50' W 003°17'510.0
2017-Jul-23 02:30N 49°52' W 003°10'510.7
2017-Jul-23 02:00N 49°55' W 003°03'611.5
2017-Jul-23 01:30N 49°58' W 002°56'4210.9
2017-Jul-22 21:38N 50°10' W 001°53'1 7.7
2017-Jul-22 21:30N 50°10' W 001°51'4 7.1
2017-Jul-22 21:00N 50°11' W 001°46'3 6.3
2017-Jul-22 20:29N 50°12' W 001°41'61 8.6
2017-Jul-22 13:27N 50°28' W 000°09'511.1
2017-Jul-22 13:00N 50°30' W 000°01'611.0
2017-Jul-22 12:29N 50°32' E 000°07'510.8
2017-Jul-22 12:00N 50°33' E 000°15'22 9.5
2017-Jul-22 09:42N 50°43' E 000°46'2 8.9
2017-Jul-22 09:30N 50°44' E 000°48'29 9.8
2017-Jul-22 06:33N 51°02' E 001°23'112.3
2017-Jul-22 06:29N 51°03' E 001°24'612.8
2017-Jul-22 06:00N 51°07' E 001°32'612.8
2017-Jul-22 05:30N 51°11' E 001°39'612.0
2017-Jul-22 05:01N 51°15' E 001°46'611.4
2017-Jul-22 04:30N 51°20' E 001°51'510.8
2017-Jul-22 04:00N 51°24' E 001°56'510.3
2017-Jul-22 03:31N 51°28' E 002°01'5 9.7
2017-Jul-22 03:00N 51°32' E 002°06'5 9.4
2017-Jul-22 02:30N 51°36' E 002°10'5 9.1
2017-Jul-22 02:00N 51°39' E 002°15'4 9.0
2017-Jul-22 01:30N 51°43' E 002°20'4 8.7
2017-Jul-22 01:00N 51°46' E 002°24'5 8.6
2017-Jul-22 00:23N 51°51' E 002°29'6 8.5
2017-Jul-21 23:41N 51°56' E 002°31'4310.4
2017-Jul-21 19:29N 52°40' E 002°35'711.9
2017-Jul-21 18:52N 52°47' E 002°36'411.9
2017-Jul-21 18:30N 52°51' E 002°37'611.7
2017-Jul-21 18:00N 52°57' E 002°37'611.4
2017-Jul-21 17:29N 53°03' E 002°38'303 9.5
2017-Jul-20 09:28N 58°03' E 004°00'9 8.0
2017-Jul-20 08:18N 58°12' E 004°00'4 7.8
2017-Jul-20 07:47N 58°16' E 003°60'4 7.9
2017-Jul-20 07:19N 58°20' E 003°60'2 7.7
2017-Jul-20 07:00N 58°22' E 004°00'4 7.5
2017-Jul-20 06:29N 58°26' E 003°60'4 7.2
2017-Jul-20 05:59N 58°30' E 003°60'42 8.3
2017-Jul-20 00:56N 59°12' E 004°00'148 9.9
2017-Jul-19 09:57N 61°40' E 004°22'510.5
2017-Jul-19 09:30N 61°44' E 004°25'510.5
2017-Jul-19 09:00N 61°49' E 004°29'510.3
2017-Jul-19 08:30N 61°53' E 004°35'510.4
2017-Jul-19 08:00N 61°58' E 004°39'510.3
2017-Jul-19 07:30N 62°03' E 004°44'510.1
2017-Jul-19 07:00N 62°07' E 004°49'510.2
2017-Jul-19 06:30N 62°12' E 004°54'510.0
2017-Jul-19 05:59N 62°16' E 004°59'5 9.9
2017-Jul-19 05:30N 62°20' E 005°06'510.1
2017-Jul-19 05:00N 62°24' E 005°14'510.0
2017-Jul-19 04:29N 62°27' E 005°21'510.0
2017-Jul-19 04:00N 62°31' E 005°29'510.1
2017-Jul-19 03:29N 62°34' E 005°36'510.1
2017-Jul-19 02:59N 62°38' E 005°44'510.2
2017-Jul-19 02:30N 62°42' E 005°51'510.3
2017-Jul-19 02:00N 62°45' E 005°59'510.3
2017-Jul-19 01:29N 62°49' E 006°08'5 9.9
2017-Jul-19 00:59N 62°52' E 006°16'5 9.8
2017-Jul-19 00:30N 62°55' E 006°25'510.1
2017-Jul-19 00:00N 62°58' E 006°34'5 9.9
2017-Jul-18 23:30N 63°01' E 006°43'510.0
2017-Jul-18 23:00N 63°04' E 006°51'4 8.7
2017-Jul-18 22:30N 63°06' E 006°59'4 8.8
2017-Jul-18 22:00N 63°08' E 007°07'4 8.9
2017-Jul-18 21:30N 63°11' E 007°16'5 9.4
2017-Jul-18 21:00N 63°13' E 007°25'5 9.3
2017-Jul-18 20:30N 63°15' E 007°35'5 9.4
2017-Jul-18 20:00N 63°13' E 007°44'5 9.5
2017-Jul-18 19:30N 63°08' E 007°42'510.1
2017-Jul-18 19:00N 63°03' E 007°41'5 9.9
2017-Jul-18 18:30N 62°59' E 007°46'5 9.3
2017-Jul-18 18:00N 62°58' E 007°56'5 9.0
2017-Jul-18 17:30N 62°57' E 008°05'5 9.9
2017-Jul-18 17:00N 62°52' E 008°09'510.0
2017-Jul-18 16:30N 62°48' E 008°16'510.1
2017-Jul-18 16:00N 62°45' E 008°24'5 9.8
2017-Jul-18 15:30N 62°42' E 008°32'1 1.5
2017-Jul-18 14:58N 62°41' E 008°33'0 0.0
2017-Jul-18 13:58N 62°41' E 008°33'0 0.0
2017-Jul-18 13:28N 62°41' E 008°33'0 0.0
2017-Jul-18 12:58N 62°41' E 008°33'0 0.0
2017-Jul-18 12:28N 62°41' E 008°33'0 0.0
2017-Jul-18 11:58N 62°41' E 008°33'0 0.0
2017-Jul-18 11:28N 62°41' E 008°33'0 0.0
2017-Jul-18 10:55N 62°41' E 008°33'0 0.0
2017-Jul-18 10:28N 62°41' E 008°33'0 0.0
2017-Jul-18 09:58N 62°41' E 008°33'0 0.0
2017-Jul-18 09:22N 62°41' E 008°33'0 0.0
2017-Jul-18 08:58N 62°41' E 008°33'0 0.0
2017-Jul-18 08:28N 62°41' E 008°33'0 0.0
2017-Jul-18 07:58N 62°41' E 008°33'0 0.0
2017-Jul-18 07:28N 62°41' E 008°33'0 0.0
2017-Jul-18 06:58N 62°41' E 008°33'0 0.0
2017-Jul-18 06:28N 62°41' E 008°33'0 0.0
2017-Jul-18 05:58N 62°41' E 008°33'0 0.0
2017-Jul-18 05:28N 62°41' E 008°33'0 0.0
2017-Jul-18 04:58N 62°41' E 008°33'0 0.0
2017-Jul-18 04:28N 62°41' E 008°33'0 0.0
2017-Jul-18 03:58N 62°41' E 008°33'0 0.0
2017-Jul-18 03:28N 62°41' E 008°33'0 0.0
2017-Jul-18 02:58N 62°41' E 008°33'0 0.0
2017-Jul-18 02:28N 62°41' E 008°33'0 0.0
2017-Jul-18 01:58N 62°41' E 008°33'0 0.0
2017-Jul-18 01:28N 62°41' E 008°33'0 0.0
2017-Jul-18 00:58N 62°41' E 008°33'0 0.0
2017-Jul-18 00:28N 62°41' E 008°33'0 0.0
2017-Jul-17 23:58N 62°41' E 008°33'0 0.0
2017-Jul-17 23:28N 62°41' E 008°33'0 0.0
2017-Jul-17 22:58N 62°41' E 008°33'0 0.0
2017-Jul-17 22:28N 62°41' E 008°33'0 0.0
2017-Jul-17 22:00N 62°41' E 008°33'0 0.0
2017-Jul-17 21:30N 62°41' E 008°33'0 0.0
2017-Jul-17 20:57N 62°41' E 008°33'0 0.0
2017-Jul-17 20:30N 62°41' E 008°33'0 0.0
2017-Jul-17 20:00N 62°41' E 008°33'0 0.0
2017-Jul-17 19:30N 62°41' E 008°33'0 0.0
2017-Jul-17 19:00N 62°41' E 008°33'0 0.0
2017-Jul-17 18:27N 62°41' E 008°33'0 0.0
2017-Jul-17 18:00N 62°41' E 008°33'0 0.0
2017-Jul-17 17:30N 62°41' E 008°33'0 0.0
2017-Jul-17 17:00N 62°41' E 008°33'0 0.2
2017-Jul-17 16:30N 62°41' E 008°33'4 8.0
2017-Jul-17 16:00N 62°44' E 008°28'611.4
2017-Jul-17 15:30N 62°48' E 008°18'510.8
2017-Jul-17 15:00N 62°51' E 008°09'510.7
2017-Jul-17 14:30N 62°56' E 008°06'510.0
2017-Jul-17 14:00N 62°58' E 007°56'5 9.4
2017-Jul-17 13:30N 62°59' E 007°46'2 4.2
2017-Jul-17 13:00N 63°01' E 007°49'0 0.0
2017-Jul-17 12:30N 63°01' E 007°49'0 0.0
2017-Jul-17 12:00N 63°01' E 007°49'0 0.0
2017-Jul-17 11:30N 63°01' E 007°49'0 0.0
2017-Jul-17 11:00N 63°01' E 007°49'0 0.0
2017-Jul-17 10:30N 63°01' E 007°49'0 0.0
2017-Jul-17 10:00N 63°01' E 007°49'0 0.0
2017-Jul-17 09:30N 63°01' E 007°49'0 0.0
2017-Jul-17 09:00N 63°01' E 007°49'0 0.0
2017-Jul-17 08:30N 63°01' E 007°49'0 0.0
2017-Jul-17 08:00N 63°01' E 007°49'0 0.0
2017-Jul-17 07:30N 63°01' E 007°49'0 0.0
2017-Jul-17 07:00N 63°01' E 007°49'0 0.1
2017-Jul-17 06:30N 63°01' E 007°49'0 0.1
2017-Jul-17 06:00N 63°01' E 007°49'0 0.0
2017-Jul-17 05:30N 63°01' E 007°49'0 0.0
2017-Jul-17 05:00N 63°01' E 007°49'0 0.0
2017-Jul-17 04:30N 63°01' E 007°49'0 0.0
2017-Jul-17 04:00N 63°01' E 007°49'0 0.0
2017-Jul-17 03:30N 63°01' E 007°49'0 0.0
2017-Jul-17 03:00N 63°01' E 007°49'0 0.0
2017-Jul-17 02:30N 63°01' E 007°49'0 0.0
2017-Jul-17 02:00N 63°01' E 007°49'0 0.0
2017-Jul-17 01:30N 63°01' E 007°49'0 0.0
2017-Jul-17 01:00N 63°01' E 007°49'0 0.1
2017-Jul-17 00:30N 63°01' E 007°49'0 0.1
2017-Jul-17 00:00N 63°01' E 007°49'0 0.0
2017-Jul-16 23:30N 63°01' E 007°49'0 0.0
2017-Jul-16 23:00N 63°01' E 007°49'0 0.0
2017-Jul-16 22:30N 63°01' E 007°49'0 0.0
2017-Jul-16 22:00N 63°01' E 007°49'0 0.0
2017-Jul-16 21:30N 63°01' E 007°49'0 0.1
2017-Jul-16 21:00N 63°01' E 007°49'0 0.0
2017-Jul-16 20:30N 63°01' E 007°49'0 0.1
2017-Jul-16 20:00N 63°01' E 007°49'0 0.1
2017-Jul-16 19:30N 63°01' E 007°49'0 0.0
2017-Jul-16 19:00N 63°01' E 007°49'0 0.0
2017-Jul-16 18:30N 63°01' E 007°49'0 0.0
2017-Jul-16 18:00N 63°01' E 007°49'0 0.0
2017-Jul-16 17:30N 63°01' E 007°49'0 0.0
2017-Jul-16 17:00N 63°01' E 007°49'0 0.0
2017-Jul-16 16:30N 63°01' E 007°49'0 0.0
2017-Jul-16 16:00N 63°01' E 007°49'0 0.0
2017-Jul-16 15:30N 63°01' E 007°49'0 0.0
2017-Jul-16 15:00N 63°01' E 007°49'0 0.0
2017-Jul-16 14:30N 63°01' E 007°49'0 0.0
2017-Jul-16 14:00N 63°01' E 007°49'0 0.0
2017-Jul-16 13:30N 63°01' E 007°49'0 0.0
2017-Jul-16 13:00N 63°01' E 007°49'0 0.0
2017-Jul-16 12:30N 63°01' E 007°49'0 0.0
2017-Jul-16 11:59N 63°01' E 007°49'0 0.0
2017-Jul-16 11:29N 63°01' E 007°49'0 0.1
2017-Jul-16 10:59N 63°01' E 007°49'0 0.0
2017-Jul-16 10:29N 63°01' E 007°49'0 0.0
2017-Jul-16 09:59N 63°01' E 007°49'0 0.0
2017-Jul-16 09:29N 63°01' E 007°49'0 0.0
2017-Jul-16 08:59N 63°01' E 007°49'0 0.0
2017-Jul-16 08:29N 63°01' E 007°49'0 0.0
2017-Jul-16 07:59N 63°01' E 007°49'0 0.0
2017-Jul-16 07:29N 63°01' E 007°49'0 0.0
2017-Jul-16 06:59N 63°01' E 007°49'0 0.0
2017-Jul-16 06:29N 63°01' E 007°49'0 0.0
2017-Jul-16 05:59N 63°01' E 007°49'0 0.0
2017-Jul-16 05:29N 63°01' E 007°49'0 0.0
2017-Jul-16 04:59N 63°01' E 007°49'0 0.1
2017-Jul-16 04:29N 63°01' E 007°49'0 0.0
2017-Jul-16 03:59N 63°01' E 007°49'0 0.0
2017-Jul-16 03:29N 63°01' E 007°49'0 0.0
2017-Jul-16 02:59N 63°01' E 007°49'0 0.0
2017-Jul-16 02:29N 63°01' E 007°49'0 0.1
2017-Jul-16 01:59N 63°01' E 007°49'0 0.1
2017-Jul-16 01:29N 63°01' E 007°49'0 0.0
2017-Jul-16 00:59N 63°01' E 007°49'0 0.0
2017-Jul-16 00:29N 63°01' E 007°49'0 0.0
2017-Jul-15 23:59N 63°01' E 007°49'0 0.0
2017-Jul-15 23:29N 63°01' E 007°49'0 0.0
2017-Jul-15 22:59N 63°01' E 007°49'0 0.0
2017-Jul-15 22:29N 63°01' E 007°49'0 0.0
2017-Jul-15 21:59N 63°01' E 007°49'0 0.0
2017-Jul-15 21:29N 63°01' E 007°49'0 0.0
2017-Jul-15 20:59N 63°01' E 007°49'0 0.0
2017-Jul-15 20:29N 63°01' E 007°49'0 0.0
2017-Jul-15 19:59N 63°01' E 007°49'0 0.0
2017-Jul-15 19:29N 63°01' E 007°49'0 0.0
2017-Jul-15 18:59N 63°01' E 007°49'0 0.0
2017-Jul-15 18:29N 63°01' E 007°49'0 0.1
2017-Jul-15 17:59N 63°01' E 007°49'0 0.0
2017-Jul-15 17:29N 63°01' E 007°49'0 0.0
2017-Jul-15 16:59N 63°01' E 007°49'0 0.0
2017-Jul-15 16:29N 63°01' E 007°49'0 0.0
2017-Jul-15 15:59N 63°01' E 007°49'0 0.1
2017-Jul-15 15:29N 63°01' E 007°49'0 0.0
2017-Jul-15 14:59N 63°01' E 007°49'0 0.1
2017-Jul-15 13:59N 63°01' E 007°49'0 0.0
2017-Jul-15 13:29N 63°01' E 007°49'0 0.0
2017-Jul-15 12:59N 63°01' E 007°49'0 0.0
2017-Jul-15 12:29N 63°01' E 007°49'0 0.0
2017-Jul-15 11:59N 63°01' E 007°49'0 0.0
2017-Jul-15 11:29N 63°01' E 007°49'0 0.0
2017-Jul-15 10:59N 63°01' E 007°49'0 0.0
2017-Jul-15 10:29N 63°01' E 007°49'0 0.0
2017-Jul-15 09:59N 63°01' E 007°49'0 0.0
2017-Jul-15 09:29N 63°01' E 007°49'0 0.1
2017-Jul-15 08:59N 63°01' E 007°49'1 1.1
2017-Jul-15 08:31N 63°01' E 007°50'5 9.8
2017-Jul-15 08:01N 63°05' E 007°55'5 9.7
2017-Jul-15 07:31N 63°09' E 007°49'5 9.5
2017-Jul-15 07:01N 63°13' E 007°43'5 9.8
2017-Jul-15 06:31N 63°14' E 007°32'611.1
2017-Jul-15 06:01N 63°12' E 007°21'610.9
2017-Jul-15 05:30N 63°09' E 007°10'510.7
2017-Jul-15 05:01N 63°07' E 006°60'510.7
2017-Jul-15 04:31N 63°04' E 006°50'510.7
2017-Jul-15 04:00N 63°00' E 006°41'510.9
2017-Jul-15 03:30N 62°57' E 006°31'510.9
2017-Jul-15 03:01N 62°54' E 006°22'610.9
2017-Jul-15 02:30N 62°50' E 006°12'611.0
2017-Jul-15 01:59N 62°47' E 006°04'511.1
2017-Jul-15 01:30N 62°43' E 005°55'611.0
2017-Jul-15 01:00N 62°39' E 005°47'611.2
2017-Jul-15 00:30N 62°35' E 005°38'611.2
2017-Jul-15 00:00N 62°31' E 005°30'611.2
2017-Jul-14 23:30N 62°27' E 005°21'511.2
2017-Jul-14 23:01N 62°23' E 005°13'611.1
2017-Jul-14 22:30N 62°19' E 005°04'611.0
2017-Jul-14 22:00N 62°15' E 004°57'510.9
2017-Jul-14 21:30N 62°10' E 004°52'510.8
2017-Jul-14 21:00N 62°05' E 004°47'510.8
2017-Jul-14 20:30N 62°00' E 004°41'611.0
2017-Jul-14 20:00N 61°55' E 004°36'511.0
2017-Jul-14 19:30N 61°50' E 004°31'510.8
2017-Jul-14 19:00N 61°45' E 004°26'510.5
2017-Jul-14 18:30N 61°40' E 004°25'510.7
2017-Jul-14 18:00N 61°35' E 004°25'510.5
2017-Jul-14 17:30N 61°30' E 004°25'510.6
2017-Jul-14 17:01N 61°24' E 004°25'510.5
2017-Jul-14 16:30N 61°19' E 004°25'510.3
2017-Jul-14 16:00N 61°14' E 004°24'510.5
2017-Jul-14 15:30N 61°09' E 004°23'611.1
2017-Jul-14 15:01N 61°03' E 004°22'611.1
2017-Jul-14 14:30N 60°58' E 004°22'611.0
2017-Jul-14 14:00N 60°52' E 004°23'2911.4
2017-Jul-14 11:28N 60°23' E 004°26'9011.2
2017-Jul-14 03:27N 58°54' E 004°46'510.5
2017-Jul-14 02:58N 58°49' E 004°47'510.6
2017-Jul-14 02:31N 58°44' E 004°51'510.6
2017-Jul-14 02:00N 58°39' E 004°54'20010.0
2017-Jul-13 06:08N 55°31' E 006°54'1 7.5
2017-Jul-13 05:59N 55°30' E 006°54'3 7.0
2017-Jul-13 05:30N 55°26' E 006°56'3 6.5
2017-Jul-13 05:00N 55°23' E 006°58'3 6.7
2017-Jul-13 04:30N 55°20' E 006°60'  
Track history (hours):
 
Tides and Currents Weather Stations Pressure Air Temp Water Temp Dewpoint Dewpoint Depression Visibility Wind Speed Wind Dir Waves Ship Positions

Arklow Spray

Last reported at 2017-Jul-23 04:21 UTC. Time now 2017-Jul-26 12:34 UTC.
Position N 49°44' W 003°33'.

Length 90 m; draft 4.6 m.

MMSI: 309914000.

Date/timePositionNaut miles runAvg speedWind from/ knotsBaromVisibWave heightAir tempDewpointWater temp
2017-Jul-23 04:21N 49°44' W 003°33'5 8.4
2017-Jul-23 03:43N 49°47' W 003°26'2 9.0
2017-Jul-23 03:30N 49°48' W 003°23'5 9.4
2017-Jul-23 03:00N 49°50' W 003°17'510.0
2017-Jul-23 02:30N 49°52' W 003°10'510.7
2017-Jul-23 02:00N 49°55' W 003°03'611.5
2017-Jul-23 01:30N 49°58' W 002°56'4210.9
2017-Jul-22 21:38N 50°10' W 001°53'1 7.7
2017-Jul-22 21:30N 50°10' W 001°51'4 7.1
2017-Jul-22 21:00N 50°11' W 001°46'3 6.3
2017-Jul-22 20:29N 50°12' W 001°41'61 8.6
2017-Jul-22 13:27N 50°28' W 000°09'511.1
2017-Jul-22 13:00N 50°30' W 000°01'611.0
2017-Jul-22 12:29N 50°32' E 000°07'510.8
2017-Jul-22 12:00N 50°33' E 000°15'22 9.5
2017-Jul-22 09:42N 50°43' E 000°46'2 8.9
2017-Jul-22 09:30N 50°44' E 000°48'29 9.8
2017-Jul-22 06:33N 51°02' E 001°23'112.3
2017-Jul-22 06:29N 51°03' E 001°24'612.8
2017-Jul-22 06:00N 51°07' E 001°32'612.8
2017-Jul-22 05:30N 51°11' E 001°39'612.0
2017-Jul-22 05:01N 51°15' E 001°46'611.4
2017-Jul-22 04:30N 51°20' E 001°51'510.8
2017-Jul-22 04:00N 51°24' E 001°56'510.3
2017-Jul-22 03:31N 51°28' E 002°01'5 9.7
2017-Jul-22 03:00N 51°32' E 002°06'5 9.4
2017-Jul-22 02:30N 51°36' E 002°10'5 9.1
2017-Jul-22 02:00N 51°39' E 002°15'4 9.0
2017-Jul-22 01:30N 51°43' E 002°20'4 8.7
2017-Jul-22 01:00N 51°46' E 002°24'5 8.6
2017-Jul-22 00:23N 51°51' E 002°29'6 8.5
2017-Jul-21 23:41N 51°56' E 002°31'4310.4
2017-Jul-21 19:29N 52°40' E 002°35'711.9
2017-Jul-21 18:52N 52°47' E 002°36'411.9
2017-Jul-21 18:30N 52°51' E 002°37'611.7
2017-Jul-21 18:00N 52°57' E 002°37'611.4
2017-Jul-21 17:29N 53°03' E 002°38'303 9.5
2017-Jul-20 09:28N 58°03' E 004°00'9 8.0
2017-Jul-20 08:18N 58°12' E 004°00'4 7.8
2017-Jul-20 07:47N 58°16' E 003°60'4 7.9
2017-Jul-20 07:19N 58°20' E 003°60'2 7.7
2017-Jul-20 07:00N 58°22' E 004°00'4 7.5
2017-Jul-20 06:29N 58°26' E 003°60'4 7.2
2017-Jul-20 05:59N 58°30' E 003°60'42 8.3
2017-Jul-20 00:56N 59°12' E 004°00'148 9.9
2017-Jul-19 09:57N 61°40' E 004°22'510.5
2017-Jul-19 09:30N 61°44' E 004°25'510.5
2017-Jul-19 09:00N 61°49' E 004°29'510.3
2017-Jul-19 08:30N 61°53' E 004°35'510.4
2017-Jul-19 08:00N 61°58' E 004°39'510.3
2017-Jul-19 07:30N 62°03' E 004°44'510.1
2017-Jul-19 07:00N 62°07' E 004°49'510.2
2017-Jul-19 06:30N 62°12' E 004°54'510.0
2017-Jul-19 05:59N 62°16' E 004°59'5 9.9
2017-Jul-19 05:30N 62°20' E 005°06'510.1
2017-Jul-19 05:00N 62°24' E 005°14'510.0
2017-Jul-19 04:29N 62°27' E 005°21'510.0
2017-Jul-19 04:00N 62°31' E 005°29'510.1
2017-Jul-19 03:29N 62°34' E 005°36'510.1
2017-Jul-19 02:59N 62°38' E 005°44'510.2
2017-Jul-19 02:30N 62°42' E 005°51'510.3
2017-Jul-19 02:00N 62°45' E 005°59'510.3
2017-Jul-19 01:29N 62°49' E 006°08'5 9.9
2017-Jul-19 00:59N 62°52' E 006°16'5 9.8
2017-Jul-19 00:30N 62°55' E 006°25'510.1
2017-Jul-19 00:00N 62°58' E 006°34'5 9.9
2017-Jul-18 23:30N 63°01' E 006°43'510.0
2017-Jul-18 23:00N 63°04' E 006°51'4 8.7
2017-Jul-18 22:30N 63°06' E 006°59'4 8.8
2017-Jul-18 22:00N 63°08' E 007°07'4 8.9
2017-Jul-18 21:30N 63°11' E 007°16'5 9.4
2017-Jul-18 21:00N 63°13' E 007°25'5 9.3
2017-Jul-18 20:30N 63°15' E 007°35'5 9.4
2017-Jul-18 20:00N 63°13' E 007°44'5 9.5
2017-Jul-18 19:30N 63°08' E 007°42'510.1
2017-Jul-18 19:00N 63°03' E 007°41'5 9.9
2017-Jul-18 18:30N 62°59' E 007°46'5 9.3
2017-Jul-18 18:00N 62°58' E 007°56'5 9.0
2017-Jul-18 17:30N 62°57' E 008°05'5 9.9
2017-Jul-18 17:00N 62°52' E 008°09'510.0
2017-Jul-18 16:30N 62°48' E 008°16'510.1
2017-Jul-18 16:00N 62°45' E 008°24'5 9.8
2017-Jul-18 15:30N 62°42' E 008°32'1 1.5
2017-Jul-18 14:58N 62°41' E 008°33'0 0.0
2017-Jul-18 13:58N 62°41' E 008°33'0 0.0
2017-Jul-18 13:28N 62°41' E 008°33'0 0.0
2017-Jul-18 12:58N 62°41' E 008°33'0 0.0
2017-Jul-18 12:28N 62°41' E 008°33'0 0.0
2017-Jul-18 11:58N 62°41' E 008°33'0 0.0
2017-Jul-18 11:28N 62°41' E 008°33'0 0.0
2017-Jul-18 10:55N 62°41' E 008°33'0 0.0
2017-Jul-18 10:28N 62°41' E 008°33'0 0.0
2017-Jul-18 09:58N 62°41' E 008°33'0 0.0
2017-Jul-18 09:22N 62°41' E 008°33'0 0.0
2017-Jul-18 08:58N 62°41' E 008°33'0 0.0
2017-Jul-18 08:28N 62°41' E 008°33'0 0.0
2017-Jul-18 07:58N 62°41' E 008°33'0 0.0
2017-Jul-18 07:28N 62°41' E 008°33'0 0.0
2017-Jul-18 06:58N 62°41' E 008°33'0 0.0
2017-Jul-18 06:28N 62°41' E 008°33'0 0.0
2017-Jul-18 05:58N 62°41' E 008°33'0 0.0
2017-Jul-18 05:28N 62°41' E 008°33'0 0.0
2017-Jul-18 04:58N 62°41' E 008°33'0 0.0
2017-Jul-18 04:28N 62°41' E 008°33'0 0.0
2017-Jul-18 03:58N 62°41' E 008°33'0 0.0
2017-Jul-18 03:28N 62°41' E 008°33'0 0.0
2017-Jul-18 02:58N 62°41' E 008°33'0 0.0
2017-Jul-18 02:28N 62°41' E 008°33'0 0.0
2017-Jul-18 01:58N 62°41' E 008°33'0 0.0
2017-Jul-18 01:28N 62°41' E 008°33'0 0.0
2017-Jul-18 00:58N 62°41' E 008°33'0 0.0
2017-Jul-18 00:28N 62°41' E 008°33'0 0.0
2017-Jul-17 23:58N 62°41' E 008°33'0 0.0
2017-Jul-17 23:28N 62°41' E 008°33'0 0.0
2017-Jul-17 22:58N 62°41' E 008°33'0 0.0
2017-Jul-17 22:28N 62°41' E 008°33'0 0.0
2017-Jul-17 22:00N 62°41' E 008°33'0 0.0
2017-Jul-17 21:30N 62°41' E 008°33'0 0.0
2017-Jul-17 20:57N 62°41' E 008°33'0 0.0
2017-Jul-17 20:30N 62°41' E 008°33'0 0.0
2017-Jul-17 20:00N 62°41' E 008°33'0 0.0
2017-Jul-17 19:30N 62°41' E 008°33'0 0.0
2017-Jul-17 19:00N 62°41' E 008°33'0 0.0
2017-Jul-17 18:27N 62°41' E 008°33'0 0.0
2017-Jul-17 18:00N 62°41' E 008°33'0 0.0
2017-Jul-17 17:30N 62°41' E 008°33'0 0.0
2017-Jul-17 17:00N 62°41' E 008°33'0 0.2
2017-Jul-17 16:30N 62°41' E 008°33'4 8.0
2017-Jul-17 16:00N 62°44' E 008°28'611.4
2017-Jul-17 15:30N 62°48' E 008°18'510.8
2017-Jul-17 15:00N 62°51' E 008°09'510.7
2017-Jul-17 14:30N 62°56' E 008°06'510.0
2017-Jul-17 14:00N 62°58' E 007°56'5 9.4
2017-Jul-17 13:30N 62°59' E 007°46'2 4.2
2017-Jul-17 13:00N 63°01' E 007°49'0 0.0
2017-Jul-17 12:30N 63°01' E 007°49'0 0.0
2017-Jul-17 12:00N 63°01' E 007°49'0 0.0
2017-Jul-17 11:30N 63°01' E 007°49'0 0.0
2017-Jul-17 11:00N 63°01' E 007°49'0 0.0
2017-Jul-17 10:30N 63°01' E 007°49'0 0.0
2017-Jul-17 10:00N 63°01' E 007°49'0 0.0
2017-Jul-17 09:30N 63°01' E 007°49'0 0.0
2017-Jul-17 09:00N 63°01' E 007°49'0 0.0
2017-Jul-17 08:30N 63°01' E 007°49'0 0.0
2017-Jul-17 08:00N 63°01' E 007°49'0 0.0
2017-Jul-17 07:30N 63°01' E 007°49'0 0.0
2017-Jul-17 07:00N 63°01' E 007°49'0 0.1
2017-Jul-17 06:30N 63°01' E 007°49'0 0.1
2017-Jul-17 06:00N 63°01' E 007°49'0 0.0
2017-Jul-17 05:30N 63°01' E 007°49'0 0.0
2017-Jul-17 05:00N 63°01' E 007°49'0 0.0
2017-Jul-17 04:30N 63°01' E 007°49'0 0.0
2017-Jul-17 04:00N 63°01' E 007°49'0 0.0
2017-Jul-17 03:30N 63°01' E 007°49'0 0.0
2017-Jul-17 03:00N 63°01' E 007°49'0 0.0
2017-Jul-17 02:30N 63°01' E 007°49'0 0.0
2017-Jul-17 02:00N 63°01' E 007°49'0 0.0
2017-Jul-17 01:30N 63°01' E 007°49'0 0.0
2017-Jul-17 01:00N 63°01' E 007°49'0 0.1
2017-Jul-17 00:30N 63°01' E 007°49'0 0.1
2017-Jul-17 00:00N 63°01' E 007°49'0 0.0
2017-Jul-16 23:30N 63°01' E 007°49'0 0.0
2017-Jul-16 23:00N 63°01' E 007°49'0 0.0
2017-Jul-16 22:30N 63°01' E 007°49'0 0.0
2017-Jul-16 22:00N 63°01' E 007°49'0 0.0
2017-Jul-16 21:30N 63°01' E 007°49'0 0.1
2017-Jul-16 21:00N 63°01' E 007°49'0 0.0
2017-Jul-16 20:30N 63°01' E 007°49'0 0.1
2017-Jul-16 20:00N 63°01' E 007°49'0 0.1
2017-Jul-16 19:30N 63°01' E 007°49'0 0.0
2017-Jul-16 19:00N 63°01' E 007°49'0 0.0
2017-Jul-16 18:30N 63°01' E 007°49'0 0.0
2017-Jul-16 18:00N 63°01' E 007°49'0 0.0
2017-Jul-16 17:30N 63°01' E 007°49'0 0.0
2017-Jul-16 17:00N 63°01' E 007°49'0 0.0
2017-Jul-16 16:30N 63°01' E 007°49'0 0.0
2017-Jul-16 16:00N 63°01' E 007°49'0 0.0
2017-Jul-16 15:30N 63°01' E 007°49'0 0.0
2017-Jul-16 15:00N 63°01' E 007°49'0 0.0
2017-Jul-16 14:30N 63°01' E 007°49'0 0.0
2017-Jul-16 14:00N 63°01' E 007°49'0 0.0
2017-Jul-16 13:30N 63°01' E 007°49'0 0.0
2017-Jul-16 13:00N 63°01' E 007°49'0 0.0
2017-Jul-16 12:30N 63°01' E 007°49'0 0.0
2017-Jul-16 11:59N 63°01' E 007°49'0 0.0
2017-Jul-16 11:29N 63°01' E 007°49'0 0.1
2017-Jul-16 10:59N 63°01' E 007°49'0 0.0
2017-Jul-16 10:29N 63°01' E 007°49'0 0.0
2017-Jul-16 09:59N 63°01' E 007°49'0 0.0
2017-Jul-16 09:29N 63°01' E 007°49'0 0.0
2017-Jul-16 08:59N 63°01' E 007°49'0 0.0
2017-Jul-16 08:29N 63°01' E 007°49'0 0.0
2017-Jul-16 07:59N 63°01' E 007°49'0 0.0
2017-Jul-16 07:29N 63°01' E 007°49'0 0.0
2017-Jul-16 06:59N 63°01' E 007°49'0 0.0
2017-Jul-16 06:29N 63°01' E 007°49'0 0.0
2017-Jul-16 05:59N 63°01' E 007°49'0 0.0
2017-Jul-16 05:29N 63°01' E 007°49'0 0.0
2017-Jul-16 04:59N 63°01' E 007°49'0 0.1
2017-Jul-16 04:29N 63°01' E 007°49'0 0.0
2017-Jul-16 03:59N 63°01' E 007°49'0 0.0
2017-Jul-16 03:29N 63°01' E 007°49'0 0.0
2017-Jul-16 02:59N 63°01' E 007°49'0 0.0
2017-Jul-16 02:29N 63°01' E 007°49'0 0.1
2017-Jul-16 01:59N 63°01' E 007°49'0 0.1
2017-Jul-16 01:29N 63°01' E 007°49'0 0.0
2017-Jul-16 00:59N 63°01' E 007°49'0 0.0
2017-Jul-16 00:29N 63°01' E 007°49'0 0.0
2017-Jul-15 23:59N 63°01' E 007°49'0 0.0
2017-Jul-15 23:29N 63°01' E 007°49'0 0.0
2017-Jul-15 22:59N 63°01' E 007°49'0 0.0
2017-Jul-15 22:29N 63°01' E 007°49'0 0.0
2017-Jul-15 21:59N 63°01' E 007°49'0 0.0
2017-Jul-15 21:29N 63°01' E 007°49'0 0.0
2017-Jul-15 20:59N 63°01' E 007°49'0 0.0
2017-Jul-15 20:29N 63°01' E 007°49'0 0.0
2017-Jul-15 19:59N 63°01' E 007°49'0 0.0
2017-Jul-15 19:29N 63°01' E 007°49'0 0.0
2017-Jul-15 18:59N 63°01' E 007°49'0 0.0
2017-Jul-15 18:29N 63°01' E 007°49'0 0.1
2017-Jul-15 17:59N 63°01' E 007°49'0 0.0
2017-Jul-15 17:29N 63°01' E 007°49'0 0.0
2017-Jul-15 16:59N 63°01' E 007°49'0 0.0
2017-Jul-15 16:29N 63°01' E 007°49'0 0.0
2017-Jul-15 15:59N 63°01' E 007°49'0 0.1
2017-Jul-15 15:29N 63°01' E 007°49'0 0.0
2017-Jul-15 14:59N 63°01' E 007°49'0 0.1
2017-Jul-15 13:59N 63°01' E 007°49'0 0.0
2017-Jul-15 13:29N 63°01' E 007°49'0 0.0
2017-Jul-15 12:59N 63°01' E 007°49'0 0.0
2017-Jul-15 12:29N 63°01' E 007°49'0 0.0
2017-Jul-15 11:59N 63°01' E 007°49'0 0.0
2017-Jul-15 11:29N 63°01' E 007°49'0 0.0
2017-Jul-15 10:59N 63°01' E 007°49'0 0.0
2017-Jul-15 10:29N 63°01' E 007°49'0 0.0
2017-Jul-15 09:59N 63°01' E 007°49'0 0.0
2017-Jul-15 09:29N 63°01' E 007°49'0 0.1
2017-Jul-15 08:59N 63°01' E 007°49'1 1.1
2017-Jul-15 08:31N 63°01' E 007°50'5 9.8
2017-Jul-15 08:01N 63°05' E 007°55'5 9.7
2017-Jul-15 07:31N 63°09' E 007°49'5 9.5
2017-Jul-15 07:01N 63°13' E 007°43'5 9.8
2017-Jul-15 06:31N 63°14' E 007°32'611.1
2017-Jul-15 06:01N 63°12' E 007°21'610.9
2017-Jul-15 05:30N 63°09' E 007°10'510.7
2017-Jul-15 05:01N 63°07' E 006°60'510.7
2017-Jul-15 04:31N 63°04' E 006°50'510.7
2017-Jul-15 04:00N 63°00' E 006°41'510.9
2017-Jul-15 03:30N 62°57' E 006°31'510.9
2017-Jul-15 03:01N 62°54' E 006°22'610.9
2017-Jul-15 02:30N 62°50' E 006°12'611.0
2017-Jul-15 01:59N 62°47' E 006°04'511.1
2017-Jul-15 01:30N 62°43' E 005°55'611.0
2017-Jul-15 01:00N 62°39' E 005°47'611.2
2017-Jul-15 00:30N 62°35' E 005°38'611.2
2017-Jul-15 00:00N 62°31' E 005°30'611.2
2017-Jul-14 23:30N 62°27' E 005°21'511.2
2017-Jul-14 23:01N 62°23' E 005°13'611.1
2017-Jul-14 22:30N 62°19' E 005°04'611.0
2017-Jul-14 22:00N 62°15' E 004°57'510.9
2017-Jul-14 21:30N 62°10' E 004°52'510.8
2017-Jul-14 21:00N 62°05' E 004°47'510.8
2017-Jul-14 20:30N 62°00' E 004°41'611.0
2017-Jul-14 20:00N 61°55' E 004°36'511.0
2017-Jul-14 19:30N 61°50' E 004°31'510.8
2017-Jul-14 19:00N 61°45' E 004°26'510.5
2017-Jul-14 18:30N 61°40' E 004°25'510.7
2017-Jul-14 18:00N 61°35' E 004°25'510.5
2017-Jul-14 17:30N 61°30' E 004°25'510.6
2017-Jul-14 17:01N 61°24' E 004°25'510.5
2017-Jul-14 16:30N 61°19' E 004°25'510.3
2017-Jul-14 16:00N 61°14' E 004°24'510.5
2017-Jul-14 15:30N 61°09' E 004°23'611.1
2017-Jul-14 15:01N 61°03' E 004°22'611.1
2017-Jul-14 14:30N 60°58' E 004°22'611.0
2017-Jul-14 14:00N 60°52' E 004°23'2911.4
2017-Jul-14 11:28N 60°23' E 004°26'9011.2
2017-Jul-14 03:27N 58°54' E 004°46'510.5
2017-Jul-14 02:58N 58°49' E 004°47'510.6
2017-Jul-14 02:31N 58°44' E 004°51'510.6
2017-Jul-14 02:00N 58°39' E 004°54'20010.0
2017-Jul-13 06:08N 55°31' E 006°54'1 7.5
2017-Jul-13 05:59N 55°30' E 006°54'3 7.0
2017-Jul-13 05:30N 55°26' E 006°56'3 6.5
2017-Jul-13 05:00N 55°23' E 006°58'3 6.7
2017-Jul-13 04:30N 55°20' E 006°60'  

Dump ship's entire track history